sensor_id;sensor_type;location;lat;lon;timestamp;pressure;altitude;pressure_sealevel;temperature;humidity
69171;BME280;56279;47.902;12.308;2023-04-15T00:00:30;94323.00;;;4.97;96.97
69171;BME280;56279;47.902;12.308;2023-04-15T00:02:31;94321.44;;;4.96;97.33
69171;BME280;56279;47.902;12.308;2023-04-15T00:04:32;94315.41;;;4.95;96.96
69171;BME280;56279;47.902;12.308;2023-04-15T00:06:36;94316.47;;;4.94;97.46
69171;BME280;56279;47.902;12.308;2023-04-15T00:08:37;94316.47;;;4.94;97.60
69171;BME280;56279;47.902;12.308;2023-04-15T00:10:39;94307.06;;;4.93;97.18
69171;BME280;56279;47.902;12.308;2023-04-15T00:12:44;94311.50;;;4.93;97.14
69171;BME280;56279;47.902;12.308;2023-04-15T00:14:46;94300.00;;;4.94;96.90
69171;BME280;56279;47.902;12.308;2023-04-15T00:16:47;94313.84;;;4.94;97.00
69171;BME280;56279;47.902;12.308;2023-04-15T00:18:55;94313.84;;;4.94;97.20
69171;BME280;56279;47.902;12.308;2023-04-15T00:20:57;94306.53;;;4.96;97.09
69171;BME280;56279;47.902;12.308;2023-04-15T00:22:59;94304.69;;;4.97;97.03
69171;BME280;56279;47.902;12.308;2023-04-15T00:25:01;94305.22;;;4.99;96.98
69171;BME280;56279;47.902;12.308;2023-04-15T00:27:02;94306.75;;;5.00;97.34
69171;BME280;56279;47.902;12.308;2023-04-15T00:29:04;94304.94;;;5.00;97.24
69171;BME280;56279;47.902;12.308;2023-04-15T00:31:06;94308.84;;;5.03;97.46
69171;BME280;56279;47.902;12.308;2023-04-15T00:33:08;94301.81;;;5.03;97.02
69171;BME280;56279;47.902;12.308;2023-04-15T00:35:10;94312.25;;;5.03;97.15
69171;BME280;56279;47.902;12.308;2023-04-15T00:37:12;94301.53;;;5.05;97.09
69171;BME280;56279;47.902;12.308;2023-04-15T00:39:13;94295.50;;;5.04;97.18
69171;BME280;56279;47.902;12.308;2023-04-15T00:41:17;94305.19;;;5.04;97.19
69171;BME280;56279;47.902;12.308;2023-04-15T00:43:19;94293.97;;;5.03;96.92
69171;BME280;56279;47.902;12.308;2023-04-15T00:45:20;94292.88;;;5.04;96.78
69171;BME280;56279;47.902;12.308;2023-04-15T00:47:22;94293.97;;;5.03;97.01
69171;BME280;56279;47.902;12.308;2023-04-15T00:49:23;94295.78;;;5.03;96.87
69171;BME280;56279;47.902;12.308;2023-04-15T00:51:25;94297.34;;;5.04;96.93
69171;BME280;56279;47.902;12.308;2023-04-15T00:53:26;94294.19;;;5.07;96.88
69171;BME280;56279;47.902;12.308;2023-04-15T00:55:28;94302.81;;;5.07;96.70
69171;BME280;56279;47.902;12.308;2023-04-15T00:57:31;94295.75;;;5.08;96.88
69171;BME280;56279;47.902;12.308;2023-04-15T00:59:35;94303.63;;;5.08;96.47
69171;BME280;56279;47.902;12.308;2023-04-15T01:01:37;94292.38;;;5.07;97.03
69171;BME280;56279;47.902;12.308;2023-04-15T01:03:38;94301.78;;;5.08;97.15
69171;BME280;56279;47.902;12.308;2023-04-15T01:05:42;94299.16;;;5.08;96.77
69171;BME280;56279;47.902;12.308;2023-04-15T01:07:44;94293.16;;;5.08;97.13
69171;BME280;56279;47.902;12.308;2023-04-15T01:09:45;94300.72;;;5.09;96.78
69171;BME280;56279;47.902;12.308;2023-04-15T01:11:49;94291.06;;;5.10;97.05
69171;BME280;56279;47.902;12.308;2023-04-15T01:13:51;94295.50;;;5.09;96.78
69171;BME280;56279;47.902;12.308;2023-04-15T01:15:56;94298.09;;;5.09;96.89
69171;BME280;56279;47.902;12.308;2023-04-15T01:17:58;94295.50;;;5.09;96.78
69171;BME280;56279;47.902;12.308;2023-04-15T01:19:59;94302.28;;;5.10;96.72
69171;BME280;56279;47.902;12.308;2023-04-15T01:22:02;94303.84;;;5.11;97.00
69171;BME280;56279;47.902;12.308;2023-04-15T01:24:08;94303.84;;;5.11;96.72
69171;BME280;56279;47.902;12.308;2023-04-15T01:26:10;94299.16;;;5.13;96.98
69171;BME280;56279;47.902;12.308;2023-04-15T01:28:13;94300.72;;;5.14;96.74
69171;BME280;56279;47.902;12.308;2023-04-15T01:30:14;94298.09;;;5.14;96.75
69171;BME280;56279;47.902;12.308;2023-04-15T01:32:16;94297.06;;;5.15;96.52
69171;BME280;56279;47.902;12.308;2023-04-15T01:34:36;94295.97;;;5.16;96.54
69171;BME280;56279;47.902;12.308;2023-04-15T01:36:56;94283.47;;;5.13;96.69
69171;BME280;56279;47.902;12.308;2023-04-15T01:38:59;94276.66;;;5.12;96.18
69171;BME280;56279;47.902;12.308;2023-04-15T01:41:00;94275.38;;;5.10;96.62
69171;BME280;56279;47.902;12.308;2023-04-15T01:43:04;94278.25;;;5.08;96.73
69171;BME280;56279;47.902;12.308;2023-04-15T01:45:07;94279.28;;;5.07;96.70
69171;BME280;56279;47.902;12.308;2023-04-15T01:47:12;94284.00;;;5.05;96.35
69171;BME280;56279;47.902;12.308;2023-04-15T01:49:17;94278.78;;;5.05;96.60
69171;BME280;56279;47.902;12.308;2023-04-15T01:51:20;94281.91;;;5.02;96.72
69171;BME280;56279;47.902;12.308;2023-04-15T01:53:25;94281.91;;;5.02;96.91
69171;BME280;56279;47.902;12.308;2023-04-15T01:55:27;94280.09;;;5.03;96.77
69171;BME280;56279;47.902;12.308;2023-04-15T01:57:30;94280.09;;;5.03;96.67
69171;BME280;56279;47.902;12.308;2023-04-15T01:59:33;94285.31;;;5.03;96.56
69171;BME280;56279;47.902;12.308;2023-04-15T02:01:36;94284.53;;;5.02;96.72
69171;BME280;56279;47.902;12.308;2023-04-15T02:03:38;94288.22;;;5.01;96.62
69171;BME280;56279;47.902;12.308;2023-04-15T02:05:41;94286.38;;;5.02;96.65
69171;BME280;56279;47.902;12.308;2023-04-15T02:07:44;94285.59;;;5.01;96.72
69171;BME280;56279;47.902;12.308;2023-04-15T02:09:47;94287.44;;;5.01;96.83
69171;BME280;56279;47.902;12.308;2023-04-15T02:11:55;94285.84;;;5.00;96.89
69171;BME280;56279;47.902;12.308;2023-04-15T02:13:57;94291.88;;;5.00;96.91
69171;BME280;56279;47.902;12.308;2023-04-15T02:16:13;94285.59;;;5.01;96.68
69171;BME280;56279;47.902;12.308;2023-04-15T02:18:19;94293.69;;;5.00;96.78
69171;BME280;56279;47.902;12.308;2023-04-15T02:20:22;94287.44;;;5.01;96.95
69171;BME280;56279;47.902;12.308;2023-04-15T02:22:25;94289.75;;;5.02;96.82
69171;BME280;56279;47.902;12.308;2023-04-15T02:24:29;94289.75;;;5.02;96.57
69171;BME280;56279;47.902;12.308;2023-04-15T02:26:35;94292.38;;;5.02;97.13
69171;BME280;56279;47.902;12.308;2023-04-15T02:28:37;94293.97;;;5.03;96.96
69171;BME280;56279;47.902;12.308;2023-04-15T02:30:40;94290.28;;;5.04;96.72
69171;BME280;56279;47.902;12.308;2023-04-15T02:32:43;94288.44;;;5.05;96.58
69171;BME280;56279;47.902;12.308;2023-04-15T02:34:46;94291.84;;;5.05;96.58
69171;BME280;56279;47.902;12.308;2023-04-15T02:36:50;94290.81;;;5.06;96.55
69171;BME280;56279;47.902;12.308;2023-04-15T02:38:57;94303.63;;;5.08;96.82
69171;BME280;56279;47.902;12.308;2023-04-15T02:41:00;94295.75;;;5.08;96.57
69171;BME280;56279;47.902;12.308;2023-04-15T02:43:04;94299.16;;;5.08;96.45
69171;BME280;56279;47.902;12.308;2023-04-15T02:45:10;94300.47;;;5.11;96.61
69171;BME280;56279;47.902;12.308;2023-04-15T02:47:17;94302.03;;;5.12;96.53
69171;BME280;56279;47.902;12.308;2023-04-15T02:49:21;94305.94;;;5.14;96.78
69171;BME280;56279;47.902;12.308;2023-04-15T02:51:24;94304.91;;;5.15;96.48
69171;BME280;56279;47.902;12.308;2023-04-15T02:53:27;94303.06;;;5.16;96.56
69171;BME280;56279;47.902;12.308;2023-04-15T02:55:30;94307.22;;;5.17;96.29
69171;BME280;56279;47.902;12.308;2023-04-15T02:57:33;94305.69;;;5.16;96.78
69171;BME280;56279;47.902;12.308;2023-04-15T02:59:41;94303.84;;;5.16;96.72
69171;BME280;56279;47.902;12.308;2023-04-15T03:01:44;94308.31;;;5.16;96.57
69171;BME280;56279;47.902;12.308;2023-04-15T03:03:46;94304.91;;;5.15;96.17
69171;BME280;56279;47.902;12.308;2023-04-15T03:05:52;94310.13;;;5.15;96.68
69171;BME280;56279;47.902;12.308;2023-04-15T03:07:56;94301.78;;;5.13;96.65
69171;BME280;56279;47.902;12.308;2023-04-15T03:09:58;94308.56;;;5.14;96.81
69171;BME280;56279;47.902;12.308;2023-04-15T03:12:03;94301.78;;;5.13;96.45
69171;BME280;56279;47.902;12.308;2023-04-15T03:14:10;94303.31;;;5.14;96.73
69171;BME280;56279;47.902;12.308;2023-04-15T03:16:17;94304.09;;;5.15;96.87
69171;BME280;56279;47.902;12.308;2023-04-15T03:18:20;94304.91;;;5.15;96.49
69171;BME280;56279;47.902;12.308;2023-04-15T03:20:23;94299.66;;;5.15;96.59
69171;BME280;56279;47.902;12.308;2023-04-15T03:22:26;94301.78;;;5.13;96.64
69171;BME280;56279;47.902;12.308;2023-04-15T03:24:29;94307.00;;;5.13;96.62
69171;BME280;56279;47.902;12.308;2023-04-15T03:26:33;94310.13;;;5.15;96.83
69171;BME280;56279;47.902;12.308;2023-04-15T03:28:41;94310.13;;;5.15;96.68
69171;BME280;56279;47.902;12.308;2023-04-15T03:30:44;94311.69;;;5.16;96.58
69171;BME280;56279;47.902;12.308;2023-04-15T03:32:49;94312.47;;;5.17;96.56
69171;BME280;56279;47.902;12.308;2023-04-15T03:34:51;94306.97;;;5.18;96.79
69171;BME280;56279;47.902;12.308;2023-04-15T03:36:54;94310.13;;;5.20;96.10
69171;BME280;56279;47.902;12.308;2023-04-15T03:38:59;94307.50;;;5.20;96.15
69171;BME280;56279;47.902;12.308;2023-04-15T03:41:03;94309.84;;;5.22;96.04
69171;BME280;56279;47.902;12.308;2023-04-15T03:43:06;94306.94;;;5.23;95.93
69171;BME280;56279;47.902;12.308;2023-04-15T03:45:09;94312.16;;;5.23;95.50
69171;BME280;56279;47.902;12.308;2023-04-15T03:47:17;94314.78;;;5.23;95.82
69171;BME280;56279;47.902;12.308;2023-04-15T03:49:20;94318.97;;;5.24;95.82
69171;BME280;56279;47.902;12.308;2023-04-15T03:51:24;94314.53;;;5.25;95.71
69171;BME280;56279;47.902;12.308;2023-04-15T03:53:27;94312.69;;;5.25;95.73
69171;BME280;56279;47.902;12.308;2023-04-15T03:55:30;94310.06;;;5.25;95.75
69171;BME280;56279;47.902;12.308;2023-04-15T03:57:33;94315.06;;;5.27;95.63
69171;BME280;56279;47.902;12.308;2023-04-15T03:59:40;94311.66;;;5.26;96.21
69171;BME280;56279;47.902;12.308;2023-04-15T04:01:47;94312.69;;;5.25;95.38
69171;BME280;56279;47.902;12.308;2023-04-15T04:03:49;94312.16;;;5.23;95.52
69171;BME280;56279;47.902;12.308;2023-04-15T04:05:52;94312.72;;;5.20;95.91
69171;BME280;56279;47.902;12.308;2023-04-15T04:07:58;94318.47;;;5.17;95.73
69171;BME280;56279;47.902;12.308;2023-04-15T04:10:02;94314.56;;;5.15;96.08
69171;BME280;56279;47.902;12.308;2023-04-15T04:12:14;94316.41;;;5.09;95.85
69171;BME280;56279;47.902;12.308;2023-04-15T04:14:17;94309.34;;;5.10;95.79
69171;BME280;56279;47.902;12.308;2023-04-15T04:16:20;94316.69;;;5.08;95.82
69171;BME280;56279;47.902;12.308;2023-04-15T04:18:36;94306.75;;;5.05;95.73
69171;BME280;56279;47.902;12.308;2023-04-15T04:20:39;94312.25;;;5.03;95.93
69171;BME280;56279;47.902;12.308;2023-04-15T04:22:43;94311.75;;;5.01;95.77
69171;BME280;56279;47.902;12.308;2023-04-15T04:24:45;94324.03;;;5.01;96.19
69171;BME280;56279;47.902;12.308;2023-04-15T04:26:48;94325.84;;;5.00;96.05
69171;BME280;56279;47.902;12.308;2023-04-15T04:28:51;94329.53;;;4.99;96.13
69171;BME280;56279;47.902;12.308;2023-04-15T04:30:54;94316.47;;;4.99;95.79
69171;BME280;56279;47.902;12.308;2023-04-15T04:32:57;94324.81;;;5.01;96.15
69171;BME280;56279;47.902;12.308;2023-04-15T04:35:00;94316.19;;;5.01;96.33
69171;BME280;56279;47.902;12.308;2023-04-15T04:37:03;94325.06;;;5.00;95.71
69171;BME280;56279;47.902;12.308;2023-04-15T04:39:05;94323.25;;;5.00;95.94
69171;BME280;56279;47.902;12.308;2023-04-15T04:41:09;94327.16;;;4.98;96.15
69171;BME280;56279;47.902;12.308;2023-04-15T04:43:12;94317.78;;;4.97;96.12
69171;BME280;56279;47.902;12.308;2023-04-15T04:45:17;94321.16;;;4.97;95.98
69171;BME280;56279;47.902;12.308;2023-04-15T04:47:20;94322.22;;;4.96;96.05
69171;BME280;56279;47.902;12.308;2023-04-15T04:49:25;94316.19;;;4.96;96.29
69171;BME280;56279;47.902;12.308;2023-04-15T04:51:28;94321.69;;;4.94;96.14
69171;BME280;56279;47.902;12.308;2023-04-15T04:53:31;94319.09;;;4.94;96.31
69171;BME280;56279;47.902;12.308;2023-04-15T04:55:33;94319.34;;;4.93;96.35
69171;BME280;56279;47.902;12.308;2023-04-15T04:57:38;94317.50;;;4.93;96.09
69171;BME280;56279;47.902;12.308;2023-04-15T04:59:41;94313.84;;;4.94;96.54
69171;BME280;56279;47.902;12.308;2023-04-15T05:01:44;94319.09;;;4.94;96.54
69171;BME280;56279;47.902;12.308;2023-04-15T05:03:47;94304.94;;;4.95;96.71
69171;BME280;56279;47.902;12.308;2023-04-15T05:05:50;94306.81;;;4.95;96.07
69171;BME280;56279;47.902;12.308;2023-04-15T05:07:53;94307.56;;;4.95;96.17
69171;BME280;56279;47.902;12.308;2023-04-15T05:09:55;94304.94;;;4.95;96.74
69171;BME280;56279;47.902;12.308;2023-04-15T05:12:01;94308.34;;;4.96;96.24
69171;BME280;56279;47.902;12.308;2023-04-15T05:14:03;94304.94;;;4.95;96.51
69171;BME280;56279;47.902;12.308;2023-04-15T05:16:06;94314.38;;;4.96;96.38
69171;BME280;56279;47.902;12.308;2023-04-15T05:18:10;94312.28;;;4.98;96.16
69171;BME280;56279;47.902;12.308;2023-04-15T05:20:12;94308.06;;;4.97;96.35
69171;BME280;56279;47.902;12.308;2023-04-15T05:22:15;94315.66;;;4.99;96.15
69171;BME280;56279;47.902;12.308;2023-04-15T05:24:18;94315.16;;;5.02;96.37
69171;BME280;56279;47.902;12.308;2023-04-15T05:26:21;94308.56;;;5.04;96.38
69171;BME280;56279;47.902;12.308;2023-04-15T05:28:24;94313.28;;;5.07;96.33
69171;BME280;56279;47.902;12.308;2023-04-15T05:30:27;94313.28;;;5.07;96.45
69171;BME280;56279;47.902;12.308;2023-04-15T05:32:30;94310.13;;;5.10;96.28
69171;BME280;56279;47.902;12.308;2023-04-15T05:34:32;94312.75;;;5.10;96.16
69171;BME280;56279;47.902;12.308;2023-04-15T05:36:36;94312.47;;;5.12;96.14
69171;BME280;56279;47.902;12.308;2023-04-15T05:38:39;94321.63;;;5.14;96.09
69171;BME280;56279;47.902;12.308;2023-04-15T05:40:43;94317.97;;;5.15;95.95
69171;BME280;56279;47.902;12.308;2023-04-15T05:42:45;94315.88;;;5.17;95.98
69171;BME280;56279;47.902;12.308;2023-04-15T05:44:48;94314.81;;;5.18;96.03
69171;BME280;56279;47.902;12.308;2023-04-15T05:46:51;94316.88;;;5.21;96.11
69171;BME280;56279;47.902;12.308;2023-04-15T05:48:53;94314.00;;;5.23;95.98
69171;BME280;56279;47.902;12.308;2023-04-15T05:50:56;94307.44;;;5.25;95.76
69171;BME280;56279;47.902;12.308;2023-04-15T05:52:59;94301.97;;;5.27;95.59
69171;BME280;56279;47.902;12.308;2023-04-15T05:55:02;94306.91;;;5.28;95.68
69171;BME280;56279;47.902;12.308;2023-04-15T05:57:05;94310.56;;;5.32;95.71
69171;BME280;56279;47.902;12.308;2023-04-15T05:59:07;94304.56;;;5.32;95.41
69171;BME280;56279;47.902;12.308;2023-04-15T06:01:10;94307.94;;;5.32;95.21
69171;BME280;56279;47.902;12.308;2023-04-15T06:03:13;94299.06;;;5.33;95.05
69171;BME280;56279;47.902;12.308;2023-04-15T06:05:15;94307.41;;;5.35;95.15
69171;BME280;56279;47.902;12.308;2023-04-15T06:07:18;94304.00;;;5.35;94.91
69171;BME280;56279;47.902;12.308;2023-04-15T06:09:21;94303.47;;;5.38;95.25
69171;BME280;56279;47.902;12.308;2023-04-15T06:11:25;94311.06;;;5.39;94.76
69171;BME280;56279;47.902;12.308;2023-04-15T06:13:28;94304.50;;;5.42;94.66
69171;BME280;56279;47.902;12.308;2023-04-15T06:15:31;94307.94;;;5.37;94.33
69171;BME280;56279;47.902;12.308;2023-04-15T06:17:34;94307.69;;;5.39;94.56
69171;BME280;56279;47.902;12.308;2023-04-15T06:19:37;94309.50;;;5.38;94.00
69171;BME280;56279;47.902;12.308;2023-04-15T06:21:39;94307.69;;;5.39;93.46
69171;BME280;56279;47.902;12.308;2023-04-15T06:23:43;94307.91;;;5.42;94.16
69171;BME280;56279;47.902;12.308;2023-04-15T06:25:45;94306.31;;;5.46;94.19
69171;BME280;56279;47.902;12.308;2023-04-15T06:27:48;94309.97;;;5.50;94.03
69171;BME280;56279;47.902;12.308;2023-04-15T06:29:51;94316.75;;;5.51;93.98
69171;BME280;56279;47.902;12.308;2023-04-15T06:31:53;94314.13;;;5.51;93.71
69171;BME280;56279;47.902;12.308;2023-04-15T06:33:57;94319.63;;;5.55;93.66
69171;BME280;56279;47.902;12.308;2023-04-15T06:36:00;94312.50;;;5.60;93.82
69171;BME280;56279;47.902;12.308;2023-04-15T06:38:03;94320.84;;;5.68;93.68
69171;BME280;56279;47.902;12.308;2023-04-15T06:40:06;94316.38;;;5.73;93.40
69171;BME280;56279;47.902;12.308;2023-04-15T06:42:10;94310.63;;;5.76;93.22
69171;BME280;56279;47.902;12.308;2023-04-15T06:44:13;94322.31;;;5.84;93.08
69171;BME280;56279;47.902;12.308;2023-04-15T06:46:15;94324.16;;;5.88;92.91
69171;BME280;56279;47.902;12.308;2023-04-15T06:48:18;94320.22;;;5.91;92.50
69171;BME280;56279;47.902;12.308;2023-04-15T06:50:21;94317.56;;;5.96;92.30
69171;BME280;56279;47.902;12.308;2023-04-15T06:52:23;94320.16;;;6.01;92.08
69171;BME280;56279;47.902;12.308;2023-04-15T06:54:26;94322.75;;;6.06;92.08
69171;BME280;56279;47.902;12.308;2023-04-15T06:56:28;94321.94;;;6.10;92.17
69171;BME280;56279;47.902;12.308;2023-04-15T06:58:31;94328.97;;;6.15;91.94
69171;BME280;56279;47.902;12.308;2023-04-15T07:00:34;94331.81;;;6.18;91.40
69171;BME280;56279;47.902;12.308;2023-04-15T07:02:37;94328.38;;;6.23;91.34
69171;BME280;56279;47.902;12.308;2023-04-15T07:04:39;94329.91;;;6.29;91.35
69171;BME280;56279;47.902;12.308;2023-04-15T07:06:42;94325.41;;;6.35;91.39
69171;BME280;56279;47.902;12.308;2023-04-15T07:08:45;94333.50;;;6.38;91.37
69171;BME280;56279;47.902;12.308;2023-04-15T07:10:47;94330.59;;;6.40;91.14
69171;BME280;56279;47.902;12.308;2023-04-15T07:12:50;94328.50;;;6.42;91.21
69171;BME280;56279;47.902;12.308;2023-04-15T07:14:52;94329.25;;;6.42;90.79
69171;BME280;56279;47.902;12.308;2023-04-15T07:16:55;94327.16;;;6.44;90.84
69171;BME280;56279;47.902;12.308;2023-04-15T07:18:58;94337.91;;;6.43;90.35
69171;BME280;56279;47.902;12.308;2023-04-15T07:21:01;94340.25;;;6.44;90.72
69171;BME280;56279;47.902;12.308;2023-04-15T07:23:04;94340.00;;;6.46;90.53
69171;BME280;56279;47.902;12.308;2023-04-15T07:25:07;94344.16;;;6.47;90.28
69171;BME280;56279;47.902;12.308;2023-04-15T07:27:10;94347.56;;;6.47;90.08
69171;BME280;56279;47.902;12.308;2023-04-15T07:29:13;94348.88;;;6.50;90.12
69171;BME280;56279;47.902;12.308;2023-04-15T07:31:15;94344.13;;;6.52;89.74
69171;BME280;56279;47.902;12.308;2023-04-15T07:33:19;94349.38;;;6.52;89.66
69171;BME280;56279;47.902;12.308;2023-04-15T07:35:22;94346.50;;;6.53;89.62
69171;BME280;56279;47.902;12.308;2023-04-15T07:37:24;94342.25;;;6.57;89.63
69171;BME280;56279;47.902;12.308;2023-04-15T07:39:27;94339.59;;;6.62;90.25
69171;BME280;56279;47.902;12.308;2023-04-15T07:41:30;94341.59;;;6.70;90.25
69171;BME280;56279;47.902;12.308;2023-04-15T07:43:33;94337.59;;;6.78;89.75
69171;BME280;56279;47.902;12.308;2023-04-15T07:45:36;94347.31;;;6.77;89.40
69171;BME280;56279;47.902;12.308;2023-04-15T07:47:38;94355.22;;;6.72;89.53
69171;BME280;56279;47.902;12.308;2023-04-15T07:49:42;94350.59;;;6.64;89.50
69171;BME280;56279;47.902;12.308;2023-04-15T07:51:45;94353.75;;;6.61;90.05
69171;BME280;56279;47.902;12.308;2023-04-15T07:53:48;94363.50;;;6.56;89.42
69171;BME280;56279;47.902;12.308;2023-04-15T07:55:51;94369.53;;;6.51;89.45
69171;BME280;56279;47.902;12.308;2023-04-15T07:57:54;94364.31;;;6.51;89.73
69171;BME280;56279;47.902;12.308;2023-04-15T07:59:56;94369.00;;;6.54;89.65
69171;BME280;56279;47.902;12.308;2023-04-15T08:01:59;94370.09;;;6.53;89.86
69171;BME280;56279;47.902;12.308;2023-04-15T08:04:02;94377.38;;;6.56;89.45
69171;BME280;56279;47.902;12.308;2023-04-15T08:06:04;94375.25;;;6.58;89.47
69171;BME280;56279;47.902;12.308;2023-04-15T08:08:07;94379.97;;;6.61;90.05
69171;BME280;56279;47.902;12.308;2023-04-15T08:10:10;94384.66;;;6.64;89.61
69171;BME280;56279;47.902;12.308;2023-04-15T08:12:13;94380.47;;;6.63;89.44
69171;BME280;56279;47.902;12.308;2023-04-15T08:14:16;94377.84;;;6.63;89.11
69171;BME280;56279;47.902;12.308;2023-04-15T08:16:23;94381.75;;;6.66;89.65
69171;BME280;56279;47.902;12.308;2023-04-15T08:18:26;94376.75;;;6.69;89.23
69171;BME280;56279;47.902;12.308;2023-04-15T08:20:28;94383.28;;;6.72;89.27
69171;BME280;56279;47.902;12.308;2023-04-15T08:22:31;94385.91;;;6.72;89.25
69171;BME280;56279;47.902;12.308;2023-04-15T08:24:33;94384.84;;;6.73;88.79
69171;BME280;56279;47.902;12.308;2023-04-15T08:26:36;94389.06;;;6.69;88.46
69171;BME280;56279;47.902;12.308;2023-04-15T08:28:40;94393.56;;;6.63;88.74
69171;BME280;56279;47.902;12.308;2023-04-15T08:30:43;94394.63;;;6.62;89.12
69171;BME280;56279;47.902;12.308;2023-04-15T08:32:45;94400.94;;;6.61;89.15
69171;BME280;56279;47.902;12.308;2023-04-15T08:34:48;94395.69;;;6.61;89.35
69171;BME280;56279;47.902;12.308;2023-04-15T08:36:51;94405.63;;;6.64;89.17
69171;BME280;56279;47.902;12.308;2023-04-15T08:38:53;94407.47;;;6.64;88.72
69171;BME280;56279;47.902;12.308;2023-04-15T08:40:57;94403.53;;;6.61;88.79
69171;BME280;56279;47.902;12.308;2023-04-15T08:43:02;94399.09;;;6.62;89.20
69171;BME280;56279;47.902;12.308;2023-04-15T08:45:08;94404.06;;;6.63;88.96
69171;BME280;56279;47.902;12.308;2023-04-15T08:47:12;94405.34;;;6.66;88.80
69171;BME280;56279;47.902;12.308;2023-04-15T08:49:20;94410.59;;;6.66;88.46
69171;BME280;56279;47.902;12.308;2023-04-15T08:51:24;94407.44;;;6.69;89.42
69171;BME280;56279;47.902;12.308;2023-04-15T08:53:28;94414.75;;;6.72;89.43
69171;BME280;56279;47.902;12.308;2023-04-15T08:55:32;94410.81;;;6.74;89.05
69171;BME280;56279;47.902;12.308;2023-04-15T08:57:38;94405.81;;;6.73;89.56
69171;BME280;56279;47.902;12.308;2023-04-15T08:59:41;94407.66;;;6.72;89.79
69171;BME280;56279;47.902;12.308;2023-04-15T09:01:45;94410.06;;;6.69;89.90
69171;BME280;56279;47.902;12.308;2023-04-15T09:03:48;94411.09;;;6.68;89.78
69171;BME280;56279;47.902;12.308;2023-04-15T09:05:53;94405.84;;;6.68;90.26
69171;BME280;56279;47.902;12.308;2023-04-15T09:07:56;94411.38;;;6.66;90.41
69171;BME280;56279;47.902;12.308;2023-04-15T09:09:59;94411.66;;;6.65;90.79
69171;BME280;56279;47.902;12.308;2023-04-15T09:12:07;94413.50;;;6.64;90.94
69171;BME280;56279;47.902;12.308;2023-04-15T09:14:10;94410.88;;;6.64;90.91
69171;BME280;56279;47.902;12.308;2023-04-15T09:16:13;94416.91;;;6.65;90.73
69171;BME280;56279;47.902;12.308;2023-04-15T09:18:27;94417.66;;;6.65;90.76
69171;BME280;56279;47.902;12.308;2023-04-15T09:20:38;94421.03;;;6.71;90.70
69171;BME280;56279;47.902;12.308;2023-04-15T09:22:42;94414.47;;;6.73;90.38
69171;BME280;56279;47.902;12.308;2023-04-15T09:24:45;94414.47;;;6.73;90.59
69171;BME280;56279;47.902;12.308;2023-04-15T09:26:51;94416.31;;;6.73;90.49
69171;BME280;56279;47.902;12.308;2023-04-15T09:29:02;94416.59;;;6.71;90.76
69171;BME280;56279;47.902;12.308;2023-04-15T09:31:05;94412.13;;;6.72;91.22
69171;BME280;56279;47.902;12.308;2023-04-15T09:33:08;94414.47;;;6.73;91.23
69171;BME280;56279;47.902;12.308;2023-04-15T09:35:12;94421.81;;;6.71;90.62
69171;BME280;56279;47.902;12.308;2023-04-15T09:37:15;94416.84;;;6.70;90.65
69171;BME280;56279;47.902;12.308;2023-04-15T09:39:20;94426.28;;;6.71;90.63
69171;BME280;56279;47.902;12.308;2023-04-15T09:41:25;94427.06;;;6.71;89.99
69171;BME280;56279;47.902;12.308;2023-04-15T09:43:37;94431.00;;;6.74;90.02
69171;BME280;56279;47.902;12.308;2023-04-15T09:45:50;94432.00;;;6.78;90.30
69171;BME280;56279;47.902;12.308;2023-04-15T09:47:53;94421.69;;;6.86;90.05
69171;BME280;56279;47.902;12.308;2023-04-15T09:49:57;94419.00;;;6.96;89.56
69171;BME280;56279;47.902;12.308;2023-04-15T09:52:00;94415.50;;;7.06;89.85
69171;BME280;56279;47.902;12.308;2023-04-15T09:54:03;94417.78;;;7.13;89.33
69171;BME280;56279;47.902;12.308;2023-04-15T09:56:06;94421.19;;;7.13;89.85
69171;BME280;56279;47.902;12.308;2023-04-15T09:58:17;94414.38;;;7.12;90.03
69171;BME280;56279;47.902;12.308;2023-04-15T10:00:24;94419.63;;;7.12;90.46
69171;BME280;56279;47.902;12.308;2023-04-15T10:02:28;94412.03;;;7.11;90.24
69171;BME280;56279;47.902;12.308;2023-04-15T10:04:34;94404.16;;;7.11;90.49
69171;BME280;56279;47.902;12.308;2023-04-15T10:06:38;94417.78;;;7.13;90.86
69171;BME280;56279;47.902;12.308;2023-04-15T10:08:41;94413.84;;;7.15;90.69
69171;BME280;56279;47.902;12.308;2023-04-15T10:10:45;94415.66;;;7.15;90.47
69171;BME280;56279;47.902;12.308;2023-04-15T10:12:50;94414.13;;;7.14;90.40
69171;BME280;56279;47.902;12.308;2023-04-15T10:15:00;94426.50;;;7.08;90.76
69171;BME280;56279;47.902;12.308;2023-04-15T10:17:06;94420.50;;;7.03;91.12
69171;BME280;56279;47.902;12.308;2023-04-15T10:19:14;94424.75;;;6.98;90.80
69171;BME280;56279;47.902;12.308;2023-04-15T10:21:20;94431.59;;;6.94;90.37
69171;BME280;56279;47.902;12.308;2023-04-15T10:23:24;94427.97;;;6.90;90.45
69171;BME280;56279;47.902;12.308;2023-04-15T10:25:32;94431.91;;;6.88;90.67
69171;BME280;56279;47.902;12.308;2023-04-15T10:27:35;94431.47;;;6.81;90.38
69171;BME280;56279;47.902;12.308;2023-04-15T10:29:42;94435.97;;;6.70;90.67
69171;BME280;56279;47.902;12.308;2023-04-15T10:31:45;94438.69;;;6.60;90.33
69171;BME280;56279;47.902;12.308;2023-04-15T10:33:49;94447.47;;;6.41;90.16
69171;BME280;56279;47.902;12.308;2023-04-15T10:35:54;94452.03;;;6.20;89.65
69171;BME280;56279;47.902;12.308;2023-04-15T10:37:59;94450.06;;;5.97;89.30
69171;BME280;56279;47.902;12.308;2023-04-15T10:40:29;94463.97;;;5.82;90.18
69171;BME280;56279;47.902;12.308;2023-04-15T10:42:33;94453.00;;;5.80;90.78
69171;BME280;56279;47.902;12.308;2023-04-15T10:44:57;94474.47;;;5.77;91.13
69171;BME280;56279;47.902;12.308;2023-04-15T10:47:00;94463.47;;;5.85;91.79
69171;BME280;56279;47.902;12.308;2023-04-15T10:51:13;94466.09;;;5.85;90.96
69171;BME280;56279;47.902;12.308;2023-04-15T10:53:26;94464.78;;;5.88;91.17
69171;BME280;56279;47.902;12.308;2023-04-15T10:55:33;94458.47;;;5.94;90.87
69171;BME280;56279;47.902;12.308;2023-04-15T10:57:40;94451.88;;;6.01;91.02